Time;durP1;ratioP1;P1;durP2;ratioP2;P2;SDS_P1;SDS_P2;PMS_P1;PMS_P2;Temp;Humidity;BMP_temperature;BMP_pressure;BME280_temperature;BME280_humidity;BME280_pressure;Samples;Min_cycle;Max_cycle;Signal;HPM_P1;HPM_P2
2022/12/28 00:01:29;;;;;;;0.00;0.00;;;;;;;9.86;100.00;99845.66;6210176;23;20641;-78
2022/12/28 00:03:58;;;;;;;0.00;0.00;;;;;;;9.93;100.00;99857.13;6208213;23;20001;-77
2022/12/28 00:06:33;;;;;;;0.00;0.00;;;;;;;9.86;100.00;99840.19;6205393;23;20095;-78
2022/12/28 00:09:00;;;;;;;0.00;0.00;;;;;;;9.88;100.00;99834.44;6209618;23;20004;-77
2022/12/28 00:11:56;;;;;;;0.00;0.00;;;;;;;9.92;100.00;99841.81;6182381;23;20009;-79
2022/12/28 00:18:59;;;;;;;;;;;;;;;;;;;;;
2022/12/28 00:22:14;;;;;;;0.00;0.00;;;;;;;9.78;100.00;99818.88;6184059;23;20080;-80
2022/12/28 00:24:47;;;;;;;0.10;0.10;;;;;;;9.88;100.00;99810.69;6203304;23;20008;-78
2022/12/28 00:27:15;;;;;;;0.00;0.00;;;;;;;9.90;100.00;99832.25;6181618;23;20643;-79
2022/12/28 00:30:01;;;;;;;0.00;0.00;;;;;;;9.82;100.00;99802.78;6160613;23;20066;-80
2022/12/28 00:32:27;;;;;;;0.00;0.00;;;;;;;9.99;100.00;99837.97;6210333;23;20051;-79
2022/12/28 00:34:54;;;;;;;0.00;0.00;;;;;;;9.89;100.00;99804.13;6211399;23;20335;-77
2022/12/28 00:37:20;;;;;;;0.00;0.00;;;;;;;9.94;100.00;99815.06;6186539;23;20000;-79
2022/12/28 00:39:45;;;;;;;0.00;0.00;;;;;;;9.92;100.00;99809.03;6212651;23;20011;-78
2022/12/28 00:42:40;;;;;;;0.00;0.00;;;;;;;9.99;100.00;99813.38;6184639;23;20004;-79
2022/12/28 00:45:29;;;;;;;0.10;0.10;;;;;;;9.95;100.00;99802.22;6215559;23;20007;-78
2022/12/28 00:48:34;;;;;;;;;;;;;;;;;;;;;
2022/12/28 00:51:20;;;;;;;0.00;0.00;;;;;;;9.90;100.00;99773.00;6213190;23;20095;-80
2022/12/28 00:54:15;;;;;;;0.00;0.00;;;;;;;9.98;100.00;99800.84;6188863;23;20020;-80
2022/12/28 00:56:45;;;;;;;0.10;0.10;;;;;;;9.90;100.00;99783.94;6216473;23;20001;-78
2022/12/28 00:59:23;;;;;;;;;;;;;;;;;;;;;
2022/12/28 01:01:58;;;;;;;0.00;0.00;;;;;;;9.84;100.00;99757.72;6217479;23;20091;-78
2022/12/28 01:04:26;;;;;;;;;;;;;;;9.96;100.00;99787.47;6211653;23;20432;-79
2022/12/28 01:07:11;;;;;;;0.00;0.00;;;;;;;9.83;100.00;99749.78;6215108;23;20213;-80
2022/12/28 01:09:36;;;;;;;0.00;0.00;;;;;;;9.86;100.00;99771.13;6214244;23;20166;-80
2022/12/28 01:12:02;;;;;;;0.00;0.00;;;;;;;9.77;100.00;99763.47;6192889;23;20004;-80
2022/12/28 01:14:38;;;;;;;0.00;0.00;;;;;;;9.86;100.00;99776.56;6167134;23;20077;-76
2022/12/28 01:17:32;;;;;;;;;;;;;;;;;;;;;
2022/12/28 01:20:42;;;;;;;;;;;;;;;10.05;100.00;99791.25;6210554;23;20060;-79
2022/12/28 01:23:32;;;;;;;0.00;0.00;;;;;;;9.96;100.00;99746.50;6194024;23;19908;-80
2022/12/28 01:26:01;;;;;;;0.08;0.08;;;;;;;10.04;100.00;99756.03;6214464;23;20023;-79
2022/12/28 01:28:30;;;;;;;0.00;0.00;;;;;;;10.08;100.00;99757.91;6216643;23;20031;-81
2022/12/28 01:30:56;;;;;;;0.00;0.00;;;;;;;10.17;100.00;99769.06;6218677;23;20016;-80
2022/12/28 01:33:35;;;;;;;0.10;0.10;;;;;;;10.01;100.00;99740.19;6193668;23;20008;-78
2022/12/28 01:36:35;;;;;;;0.00;0.00;;;;;;;10.24;100.00;99772.34;6216150;23;20005;-80
2022/12/28 01:39:32;;;;;;;;;;;;;;;;;;;;;
2022/12/28 01:42:24;;;;;;;0.00;0.00;;;;;;;10.03;100.00;99741.56;6214209;23;20080;-78
2022/12/28 01:45:04;;;;;;;;;;;;;;;;;;;;;
2022/12/28 01:47:47;;;;;;;;;;;;;;;;;;;;;
2022/12/28 01:50:23;;;;;;;0.10;0.10;;;;;;;10.20;100.00;99771.25;6217685;23;20084;-80
2022/12/28 01:52:56;;;;;;;0.00;0.00;;;;;;;10.20;100.00;99768.53;6214264;23;20004;-79
2022/12/28 01:58:55;;;;;;;;;;;;;;;;;;;;;
2022/12/28 02:01:44;;;;;;;;;;;;;;;;;;;;;
2022/12/28 02:08:41;;;;;;;;;;;;;;;;;;;;;
2022/12/28 02:11:33;;;;;;;0.00;0.00;;;;;;;10.03;100.00;99732.53;6129217;23;20387;-79
2022/12/28 02:14:25;;;;;;;0.00;0.00;;;;;;;10.23;100.00;99742.56;6122076;23;20002;-80
2022/12/28 02:28:16;;;;;;;;;;;;;;;;;;;;;
2022/12/28 02:34:00;;;;;;;0.10;0.10;;;;;;;10.03;100.00;99719.72;5977521;24;20088;-82
2022/12/28 02:37:17;;;;;;;0.00;0.00;;;;;;;9.92;100.00;99688.06;6094354;23;20103;-82
2022/12/28 02:40:26;;;;;;;;;;;;;;;;;;;;;
2022/12/28 02:43:01;;;;;;;0.00;0.00;;;;;;;9.96;100.00;99695.41;6100450;23;20038;-81
2022/12/28 02:52:09;;;;;;;0.10;0.10;;;;;;;10.07;100.00;99698.09;6180775;23;20011;-80
2022/12/28 02:57:57;;;;;;;0.00;0.00;;;;;;;10.08;100.00;99702.47;6176962;23;20019;-80
2022/12/28 03:00:33;;;;;;;0.00;0.00;;;;;;;10.05;100.00;99687.44;6154076;23;20318;-78
2022/12/28 03:03:20;;;;;;;0.00;0.00;;;;;;;10.16;100.00;99721.00;6148554;23;20083;-79
2022/12/28 03:08:58;;;;;;;0.00;0.00;;;;;;;10.06;100.00;99682.78;6180564;23;20020;-78
2022/12/28 03:12:00;;;;;;;0.00;0.00;;;;;;;10.00;100.00;99673.00;6150089;23;20001;-80
2022/12/28 03:14:55;;;;;;;0.00;0.00;;;;;;;9.94;100.00;99659.38;6180469;23;20375;-79
2022/12/28 03:31:23;;;;;;;0.00;0.00;;;;;;;9.99;100.00;99635.84;6215908;23;20012;-81
2022/12/28 03:33:52;;;;;;;0.10;0.10;;;;;;;10.00;100.00;99645.69;6211692;23;19996;-81
2022/12/28 03:36:34;;;;;;;0.00;0.00;;;;;;;10.10;100.00;99657.38;6210702;23;20032;-81
2022/12/28 03:39:15;;;;;;;0.00;0.00;;;;;;;10.10;100.00;99640.16;6211794;23;20078;-80
2022/12/28 03:41:49;;;;;;;0.00;0.00;;;;;;;10.02;100.00;99632.56;6212980;23;20016;-79
2022/12/28 03:44:22;;;;;;;0.00;0.00;;;;;;;10.00;100.00;99612.91;6212035;23;20032;-79
2022/12/28 03:47:18;;;;;;;0.00;0.00;;;;;;;10.07;100.00;99640.72;6213513;23;19997;-80
2022/12/28 03:49:53;;;;;;;0.00;0.00;;;;;;;10.02;100.00;99621.66;6213522;23;20024;-79
2022/12/28 03:52:24;;;;;;;0.03;0.03;;;;;;;9.92;100.00;99628.78;6186520;23;20091;-80
2022/12/28 03:55:06;;;;;;;0.00;0.00;;;;;;;9.99;100.00;99616.72;6213533;23;20008;-81
2022/12/28 03:57:45;;;;;;;0.00;0.00;;;;;;;9.91;100.00;99594.38;6211673;23;20020;-82
2022/12/28 04:00:24;;;;;;;;;;;;;;;;;;;;;
2022/12/28 04:03:03;;;;;;;0.00;0.00;;;;;;;9.91;100.00;99588.91;6213886;23;20092;-82
2022/12/28 04:06:20;;;;;;;;;;;;;;;;;;;;;
2022/12/28 04:08:50;;;;;;;0.10;0.10;;;;;;;9.96;100.00;99608.00;6217831;23;20064;-84
2022/12/28 04:11:35;;;;;;;;;;;;;;;;;;;;;
2022/12/28 04:14:13;;;;;;;;;;;;;;;;;;;;;
2022/12/28 04:16:39;;;;;;;0.00;0.00;;;;;;;9.83;100.00;99575.88;6219975;23;20019;-84
2022/12/28 04:19:35;;;;;;;;;;;;;;;;;;;;;
2022/12/28 04:22:21;;;;;;;0.00;0.00;;;;;;;9.90;100.00;99587.28;6212329;23;20112;-86
2022/12/28 04:25:19;;;;;;;0.00;0.00;;;;;;;9.89;100.00;99563.81;6222439;23;20020;-88
2022/12/28 04:28:05;;;;;;;0.00;0.00;;;;;;;9.93;100.00;99575.81;6203101;23;20013;-86
2022/12/28 04:30:31;;;;;;;0.00;0.00;;;;;;;9.96;100.00;99586.16;6218196;23;20000;-86
2022/12/28 04:32:59;;;;;;;0.00;0.00;;;;;;;9.93;100.00;99564.88;6218031;23;20005;-86
2022/12/28 04:36:06;;;;;;;0.00;0.00;;;;;;;9.99;100.00;99573.88;6216222;23;20232;-87
2022/12/28 04:38:37;;;;;;;0.00;0.00;;;;;;;9.91;100.00;99550.69;6216079;23;20027;-86
2022/12/28 04:41:27;;;;;;;;;;;;;;;;;;;;;
2022/12/28 04:44:07;;;;;;;0.00;0.00;;;;;;;9.84;100.00;99522.91;6218193;23;20091;-84
2022/12/28 04:46:35;;;;;;;0.05;0.05;;;;;;;9.88;100.00;99529.41;6191449;23;20039;-83
2022/12/28 04:49:03;;;;;;;0.00;0.00;;;;;;;9.75;100.00;99505.47;6192016;23;20016;-84
2022/12/28 04:51:41;;;;;;;0.00;0.00;;;;;;;9.83;100.00;99521.25;6218914;23;20087;-83
2022/12/28 04:54:13;;;;;;;0.00;0.00;;;;;;;9.81;100.00;99522.63;6193859;23;20492;-85
2022/12/28 04:57:32;;;;;;;;;;;;;;;;;;;;;
2022/12/28 04:59:58;;;;;;;0.00;0.00;;;;;;;9.81;100.00;99517.16;6214743;23;20084;-83
2022/12/28 05:02:36;;;;;;;;;;;;;;;;;;;;;
2022/12/28 05:05:07;;;;;;;0.00;0.00;;;;;;;9.66;100.00;99494.31;6216221;23;20060;-85
2022/12/28 05:07:43;;;;;;;;;;;;;;;;;;;;;
2022/12/28 05:10:09;;;;;;;0.10;0.10;;;;;;;9.71;100.00;99496.19;6216332;23;20025;-85
2022/12/28 05:12:37;;;;;;;0.00;0.00;;;;;;;9.61;100.00;99469.81;6213488;23;20004;-84
2022/12/28 05:15:22;;;;;;;;;;;;;;;;;;;;;
2022/12/28 05:17:57;;;;;;;0.00;0.00;;;;;;;9.74;100.00;99506.59;6214655;23;20039;-84
2022/12/28 05:20:58;;;;;;;;;;;;;;;;;;;;;
2022/12/28 05:23:42;;;;;;;0.00;0.00;;;;;;;9.57;100.00;99491.38;6194829;23;20069;-84
2022/12/28 05:26:11;;;;;;;0.00;0.00;;;;;;;9.54;100.00;99475.56;6217411;23;20388;-86
2022/12/28 05:28:55;;;;;;;;;;;;;;;;;;;;;
2022/12/28 05:31:34;;;;;;;;;;;;;;;;;;;;;
2022/12/28 05:34:00;;;;;;;0.00;0.00;;;;;;;9.75;100.00;99502.72;6217296;23;20027;-86
2022/12/28 05:36:27;;;;;;;0.00;0.00;;;;;;;9.52;100.00;99450.47;6212879;23;20005;-86
2022/12/28 05:39:13;;;;;;;0.00;0.00;;;;;;;9.61;100.00;99470.59;6215879;23;19996;-84
2022/12/28 05:42:01;;;;;;;0.00;0.00;;;;;;;9.74;100.00;99484.75;6190481;23;20065;-85
2022/12/28 05:44:47;;;;;;;0.00;0.00;;;;;;;9.65;100.00;99464.56;6216281;23;20009;-85
2022/12/28 05:47:37;;;;;;;;;;;;;;;;;;;;;
2022/12/28 05:50:03;;;;;;;0.00;0.00;;;;;;;9.57;100.00;99457.81;6213486;23;20087;-88
2022/12/28 05:52:51;;;;;;;0.00;0.00;;;;;;;9.70;100.00;99472.75;6215122;23;20442;-83
2022/12/28 05:55:25;;;;;;;0.00;0.00;;;;;;;9.52;100.00;99445.03;6211510;23;20008;-84
2022/12/28 05:58:00;;;;;;;;;;;;;;;9.66;100.00;99471.69;6211239;23;20034;-81
2022/12/28 06:00:25;;;;;;;0.10;0.10;;;;;;;9.42;100.00;99429.53;6206023;23;20235;-81
2022/12/28 06:03:07;;;;;;;0.00;0.00;;;;;;;9.53;100.00;99478.56;6214668;23;20246;-83
2022/12/28 06:05:35;;;;;;;0.00;0.00;;;;;;;9.41;100.00;99438.00;6209690;23;20424;-84
2022/12/28 06:08:24;;;;;;;;;;;;;;;;;;;;;
2022/12/28 06:11:08;;;;;;;;;;;;;;;;;;;;;
2022/12/28 06:13:52;;;;;;;0.00;0.00;;;;;;;9.36;100.00;99440.72;6214137;23;20064;-83
2022/12/28 06:16:55;;;;;;;;;;;;;;;;;;;;;
2022/12/28 06:20:03;;;;;;;0.00;0.00;;;;;;;9.29;100.00;99434.78;6212549;23;20104;-85
2022/12/28 06:22:39;;;;;;;;;;;;;;;;;;;;;
2022/12/28 06:25:13;;;;;;;0.10;0.10;;;;;;;9.17;100.00;99388.75;6217759;23;20404;-88
2022/12/28 06:27:52;;;;;;;0.00;0.00;;;;;;;9.18;100.00;99409.47;6216842;23;20001;-86
2022/12/28 06:30:18;;;;;;;0.00;0.00;;;;;;;9.15;100.00;99383.56;6218361;23;20015;-85
2022/12/28 06:32:48;;;;;;;0.00;0.00;;;;;;;9.25;100.00;99397.16;6215049;23;20001;-88
2022/12/28 06:35:14;;;;;;;0.00;0.00;;;;;;;9.30;100.00;99425.50;6216271;23;20008;-84
2022/12/28 06:40:28;;;;;;;0.00;0.00;;;;;;;9.16;100.00;99393.41;6206118;23;20004;-83
2022/12/28 06:43:10;;;;;;;0.00;0.00;;;;;;;9.07;100.00;99403.28;6212844;23;20012;-84
2022/12/28 06:45:55;;;;;;;0.00;0.00;;;;;;;9.05;100.00;99373.56;6193830;23;20000;-86
2022/12/28 06:52:09;;;;;;;0.00;0.00;;;;;;;9.01;100.00;99379.84;6217912;23;20056;-84
2022/12/28 06:54:39;;;;;;;0.00;0.00;;;;;;;8.97;100.00;99389.69;6213272;23;20447;-81
2022/12/28 06:57:15;;;;;;;0.00;0.00;;;;;;;9.05;100.00;99384.47;6208778;23;20004;-84
2022/12/28 06:59:40;;;;;;;0.00;0.00;;;;;;;9.03;100.00;99377.66;6187975;23;20004;-81
2022/12/28 07:02:24;;;;;;;0.10;0.10;;;;;;;8.86;100.00;99357.03;6207427;23;20079;-79
2022/12/28 07:05:01;;;;;;;0.00;0.00;;;;;;;8.74;100.00;99367.44;6211414;23;20008;-80
2022/12/28 07:07:28;;;;;;;0.00;0.00;;;;;;;8.82;100.00;99366.84;6209117;23;21141;-80
2022/12/28 07:09:56;;;;;;;0.00;0.00;;;;;;;8.82;100.00;99355.13;6213134;23;20012;-80
2022/12/28 07:12:51;;;;;;;0.00;0.00;;;;;;;8.91;100.00;99375.28;6211056;23;20028;-87
2022/12/28 07:15:16;;;;;;;0.10;0.10;;;;;;;8.63;100.00;99324.97;6213574;23;20011;-81
2022/12/28 07:18:09;;;;;;;0.00;0.00;;;;;;;8.71;100.00;99316.22;6212725;23;20008;-85
2022/12/28 07:20:46;;;;;;;0.10;0.10;;;;;;;8.60;100.00;99328.25;6216939;23;20047;-85
2022/12/28 07:26:12;;;;;;;0.00;0.00;;;;;;;8.69;100.00;99334.75;6208734;23;20736;-85
2022/12/28 07:28:42;;;;;;;0.00;0.00;;;;;;;8.49;100.00;99298.31;6217305;23;20009;-85
2022/12/28 07:31:43;;;;;;;0.00;0.00;;;;;;;8.58;100.00;99322.28;6215439;23;20001;-86
2022/12/28 07:34:39;;;;;;;;;;;;;;;;;;;;;
2022/12/28 07:37:02;;;;;;;0.00;0.00;;;;;;;8.39;100.00;99336.47;6211382;23;20004;-83
2022/12/28 07:39:36;;;;;;;0.00;0.00;;;;;;;8.28;100.00;99368.41;6187551;23;20008;-84
2022/12/28 07:42:11;;;;;;;0.00;0.00;;;;;;;8.34;100.00;99301.09;6216904;23;20062;-85
2022/12/28 07:45:00;;;;;;;0.10;0.10;;;;;;;8.33;100.00;99294.81;6214857;23;20068;-86
2022/12/28 07:47:36;;;;;;;;;;;;;;;;;;;;;
2022/12/28 07:50:08;;;;;;;0.00;0.00;;;;;;;8.26;100.00;99290.78;6216249;23;20377;-84
2022/12/28 07:53:15;;;;;;;0.00;0.00;;;;;;;8.24;100.00;99277.44;6193477;23;20009;-81
2022/12/28 07:55:56;;;;;;;0.00;0.00;;;;;;;8.24;100.00;99287.53;6219977;23;20008;-88
2022/12/28 07:58:26;;;;;;;0.00;0.00;;;;;;;8.36;100.00;99293.44;6222925;23;20056;-83
2022/12/28 08:01:02;;;;;;;;;;;;;;;;;;;;;
2022/12/28 08:03:28;;;;;;;0.00;0.00;;;;;;;8.28;100.00;99280.41;6217687;23;20068;-84
2022/12/28 08:06:03;;;;;;;0.00;0.00;;;;;;;8.17;100.00;99253.22;6213961;23;20339;-84
2022/12/28 08:08:45;;;;;;;0.10;0.10;;;;;;;8.28;100.00;99285.84;6218055;23;20032;-84
2022/12/28 08:11:25;;;;;;;0.00;0.00;;;;;;;8.34;100.00;99261.03;6212635;23;20035;-82
2022/12/28 08:14:28;;;;;;;0.00;0.00;;;;;;;8.28;100.00;99242.28;6212254;23;20000;-82
2022/12/28 08:16:53;;;;;;;0.00;0.00;;;;;;;8.46;100.00;99257.22;6204652;23;20008;-78
2022/12/28 08:19:21;;;;;;;0.00;0.00;;;;;;;8.42;100.00;99254.19;6180560;23;20416;-79
2022/12/28 08:21:58;;;;;;;0.00;0.00;;;;;;;8.44;100.00;99252.03;6209661;23;20416;-81
2022/12/28 08:24:41;;;;;;;0.00;0.00;;;;;;;8.48;100.00;99253.09;6182756;23;20016;-81
2022/12/28 08:27:08;;;;;;;0.00;0.00;;;;;;;8.33;100.00;99226.72;6213499;23;20024;-82
2022/12/28 08:29:34;;;;;;;0.00;0.00;;;;;;;8.46;100.00;99244.41;6210646;23;20498;-82
2022/12/28 08:32:02;;;;;;;0.00;0.00;;;;;;;8.33;100.00;99213.09;6187689;23;20004;-84
2022/12/28 08:34:52;;;;;;;0.00;0.00;;;;;;;8.45;100.00;99231.06;6207460;23;20332;-81
2022/12/28 08:37:31;;;;;;;;;;;;;;;;;;;;;
2022/12/28 08:40:14;;;;;;;0.00;0.00;;;;;;;8.32;100.00;99213.38;6207871;23;20024;-86
2022/12/28 08:42:39;;;;;;;0.00;0.00;;;;;;;8.33;100.00;99212.28;6216467;23;20004;-82
2022/12/28 08:45:16;;;;;;;0.00;0.00;;;;;;;8.52;100.00;99248.72;6212574;23;20455;-80
2022/12/28 08:47:41;;;;;;;0.00;0.00;;;;;;;8.60;100.00;99230.97;6164326;23;20077;-80
2022/12/28 08:50:10;;;;;;;0.00;0.00;;;;;;;8.49;100.00;99227.47;6211398;23;20043;-81
2022/12/28 08:52:40;;;;;;;0.00;0.00;;;;;;;8.44;100.00;99202.16;6211147;23;20020;-79
2022/12/28 08:55:06;;;;;;;0.00;0.00;;;;;;;8.44;100.00;99202.16;6186179;23;20374;-79
2022/12/28 08:57:32;;;;;;;0.00;0.00;;;;;;;8.48;100.00;99214.16;6183425;23;20008;-80
2022/12/28 09:00:07;;;;;;;;;;;;;;;;;;;;;
2022/12/28 09:02:43;;;;;;;;;;;;;;;;;;;;;
2022/12/28 09:05:16;;;;;;;0.00;0.00;;;;;;;8.29;100.00;99211.22;6212034;23;20084;-81
2022/12/28 09:07:42;;;;;;;0.00;0.00;;;;;;;8.26;100.00;99184.56;6208936;23;20012;-81
2022/12/28 09:10:15;;;;;;;0.00;0.00;;;;;;;8.39;100.00;99213.88;6211841;23;20039;-81
2022/12/28 09:12:47;;;;;;;0.00;0.00;;;;;;;8.31;100.00;99193.50;6210299;23;20008;-83
2022/12/28 09:15:25;;;;;;;;;;;;;;;;;;;;;
2022/12/28 09:17:51;;;;;;;0.00;0.00;;;;;;;8.19;100.00;99139.38;6212925;23;20084;-82
2022/12/28 09:20:19;;;;;;;0.00;0.00;;;;;;;8.21;100.00;99145.34;6213817;23;20005;-81
2022/12/28 09:22:52;;;;;;;0.00;0.00;;;;;;;8.29;100.00;99146.66;6185360;23;20008;-81
2022/12/28 09:25:29;;;;;;;0.00;0.00;;;;;;;8.51;100.00;99176.25;6213239;23;20022;-81
2022/12/28 09:27:57;;;;;;;0.00;0.00;;;;;;;8.44;100.00;99167.59;6187137;23;20023;-82
2022/12/28 09:30:29;;;;;;;0.00;0.00;;;;;;;8.44;100.00;99147.66;6188115;23;20434;-82
2022/12/28 09:33:57;;;;;;;0.00;0.00;;;;;;;8.42;100.00;99134.31;6179949;23;20009;-82
2022/12/28 09:35:40;;;;;;;0.00;0.00;;;;;;;8.58;100.00;99143.22;6206029;23;20056;-82
2022/12/28 09:38:06;;;;;;;0.00;0.00;;;;;;;8.48;100.00;99198.59;6212444;23;20020;-81
2022/12/28 09:40:49;;;;;;;;;;;;;;;;;;;;;
2022/12/28 09:43:16;;;;;;;0.00;0.00;;;;;;;8.23;100.00;99092.53;6213183;23;20079;-81
2022/12/28 09:45:48;;;;;;;0.00;0.00;;;;;;;8.49;100.00;99123.94;6212738;23;20079;-82
2022/12/28 09:48:27;;;;;;;;;;;;;;;;;;;;;
2022/12/28 09:50:53;;;;;;;0.00;0.00;;;;;;;8.38;100.00;99076.06;6215370;23;20088;-84
2022/12/28 09:53:34;;;;;;;0.00;0.00;;;;;;;8.29;100.00;99091.38;6189015;23;20001;-83
2022/12/28 09:56:23;;;;;;;0.00;0.00;;;;;;;8.46;100.00;99101.91;6212145;23;20014;-80
2022/12/28 09:58:52;;;;;;;0.00;0.00;;;;;;;8.39;100.00;99092.09;6209125;23;20023;-82
2022/12/28 10:01:24;;;;;;;0.00;0.00;;;;;;;8.26;100.00;99086.50;6187137;23;20443;-82
2022/12/28 10:03:56;;;;;;;0.00;0.00;;;;;;;8.17;100.00;99067.22;6210584;23;20009;-80
2022/12/28 10:06:35;;;;;;;0.10;0.10;;;;;;;8.24;100.00;99075.09;6214333;23;20012;-83
2022/12/28 10:09:09;;;;;;;0.00;0.00;;;;;;;8.26;100.00;99075.63;6210987;23;20001;-82
2022/12/28 10:11:52;;;;;;;0.10;0.10;;;;;;;8.15;100.00;99053.91;6214167;23;20031;-82
2022/12/28 10:14:32;;;;;;;0.00;0.00;;;;;;;8.24;100.00;99050.59;6210536;23;19997;-81
2022/12/28 10:17:05;;;;;;;0.00;0.00;;;;;;;8.10;100.00;99032.16;6214282;23;20031;-83
2022/12/28 10:19:38;;;;;;;0.00;0.00;;;;;;;8.14;100.00;99019.59;6211040;23;19997;-83
2022/12/28 10:22:30;;;;;;;0.10;0.10;;;;;;;8.26;100.00;99021.16;6211633;23;20019;-84
2022/12/28 10:24:55;;;;;;;0.00;0.00;;;;;;;8.35;100.00;99019.41;6210914;23;20130;-81
2022/12/28 10:27:29;;;;;;;0.00;0.00;;;;;;;8.30;100.00;99017.56;6210123;23;20372;-83
2022/12/28 10:30:30;;;;;;;0.00;0.00;;;;;;;8.19;100.00;98992.34;6209614;23;20003;-83
2022/12/28 10:33:11;;;;;;;0.00;0.00;;;;;;;8.40;100.00;98989.44;6208674;23;20001;-84
2022/12/28 10:35:54;;;;;;;0.00;0.00;;;;;;;8.28;100.00;98978.91;6185746;23;20031;-82
2022/12/28 10:38:44;;;;;;;0.00;0.00;;;;;;;8.47;100.00;98994.56;6208859;23;20005;-80
2022/12/28 10:41:15;;;;;;;0.10;0.10;;;;;;;8.37;100.00;98952.69;6211155;23;20099;-82
2022/12/28 10:43:54;;;;;;;0.05;0.05;;;;;;;8.51;100.00;98985.53;6213402;23;20005;-83
2022/12/28 10:46:24;;;;;;;0.00;0.00;;;;;;;8.28;100.00;98929.06;6210242;23;20000;-82
2022/12/28 10:49:20;;;;;;;0.00;0.00;;;;;;;8.44;100.00;98955.09;6213959;23;20053;-82
2022/12/28 10:52:02;;;;;;;0.00;0.00;;;;;;;8.37;100.00;98925.44;6216452;23;20000;-84
2022/12/28 10:54:37;;;;;;;0.00;0.00;;;;;;;8.52;100.00;98931.84;6213660;23;20008;-83
2022/12/28 10:57:03;;;;;;;0.10;0.10;;;;;;;8.34;100.00;98903.44;6212334;23;20005;-83
2022/12/28 10:59:32;;;;;;;0.00;0.00;;;;;;;8.46;100.00;98906.56;6218266;23;20036;-84
2022/12/28 11:05:31;;;;;;;0.00;0.00;;;;;;;8.33;100.00;98885.44;6203591;23;20232;-81
2022/12/28 11:08:12;;;;;;;0.00;0.00;;;;;;;8.51;100.00;98898.38;6211621;23;20028;-82
2022/12/28 11:10:39;;;;;;;0.00;0.00;;;;;;;8.44;100.00;98886.13;6205360;23;20004;-82
2022/12/28 11:13:15;;;;;;;0.00;0.00;;;;;;;8.44;100.00;98867.94;6160748;23;20005;-82
2022/12/28 11:15:59;;;;;;;;;;;;;;;;;;;;;
2022/12/28 11:18:25;;;;;;;0.00;0.00;;;;;;;8.53;100.00;98862.66;6211054;23;20084;-82
2022/12/28 11:20:52;;;;;;;0.00;0.00;;;;;;;8.60;100.00;98867.72;6210083;23;20087;-81
2022/12/28 11:23:30;;;;;;;0.00;0.00;;;;;;;8.48;100.00;98858.06;6203743;23;20091;-80
2022/12/28 11:26:03;;;;;;;0.00;0.00;;;;;;;8.58;100.00;98827.16;6208243;23;20017;-82
2022/12/28 11:28:30;;;;;;;0.00;0.00;;;;;;;8.51;100.00;98813.91;6205822;23;20012;-82
2022/12/28 11:30:56;;;;;;;0.00;0.00;;;;;;;8.59;100.00;98822.53;6184668;23;20008;-80
2022/12/28 11:33:25;;;;;;;0.00;0.00;;;;;;;8.70;100.00;98813.09;6207105;23;20001;-83
2022/12/28 11:35:55;;;;;;;0.00;0.00;;;;;;;8.69;100.00;98797.88;6211682;23;20008;-81
2022/12/28 11:38:40;;;;;;;0.00;0.00;;;;;;;8.80;100.00;98788.44;6205544;23;20027;-82
2022/12/28 11:41:12;;;;;;;0.00;0.00;;;;;;;8.77;100.00;98767.22;6209566;23;20083;-84
2022/12/28 11:43:47;;;;;;;0.00;0.00;;;;;;;8.79;100.00;98751.41;6205918;23;20025;-82
2022/12/28 11:46:21;;;;;;;0.00;0.00;;;;;;;8.89;100.00;98759.44;6209681;23;20063;-81
2022/12/28 11:49:02;;;;;;;;;;;;;;;8.89;100.00;98737.63;6210485;23;20315;-84
2022/12/28 11:51:39;;;;;;;0.00;0.00;;;;;;;8.95;100.00;98759.34;6223078;23;19903;-83
2022/12/28 11:54:58;;;;;;;0.08;0.08;;;;;;;8.99;100.00;98725.72;6192868;23;20019;-84
2022/12/28 11:57:46;;;;;;;;;;;;;;;;;;;;;
2022/12/28 12:00:26;;;;;;;0.00;0.00;;;;;;;9.02;100.00;98700.63;6222290;23;20066;-84
2022/12/28 12:03:25;;;;;;;;;;;;;;;;;;;;;
2022/12/28 12:05:54;;;;;;;0.00;0.00;;;;;;;9.04;100.00;98676.56;6214620;23;20032;-84
2022/12/28 12:08:25;;;;;;;0.00;0.00;;;;;;;9.15;100.00;98670.94;6216271;23;20434;-85
2022/12/28 12:11:32;;;;;;;0.00;0.00;;;;;;;9.07;100.00;98658.81;6215388;23;20019;-86
2022/12/28 12:14:23;;;;;;;0.00;0.00;;;;;;;9.09;100.00;98619.22;6209741;23;20001;-86
2022/12/28 12:20:35;;;;;;;0.00;0.00;;;;;;;9.33;100.00;98634.63;6206963;23;20363;-85
2022/12/28 12:23:07;;;;;;;0.00;0.00;;;;;;;9.17;100.00;98604.09;6196319;23;20073;-84
2022/12/28 12:25:56;;;;;;;0.00;0.00;;;;;;;9.21;100.00;98665.13;6220402;23;20021;-88
2022/12/28 12:29:32;;;;;;;;;;;;;;;;;;;;;
2022/12/28 12:32:02;;;;;;;;;;;;;;;9.40;100.00;98585.09;6194805;23;20039;-87
2022/12/28 12:34:49;;;;;;;0.00;0.00;;;;;;;9.40;100.00;98585.94;6188308;23;19919;-86
2022/12/28 12:38:16;;;;;;;0.00;0.00;;;;;;;9.42;100.00;98593.81;6211656;23;19985;-84
2022/12/28 12:40:55;;;;;;;0.00;0.00;;;;;;;9.50;100.00;98590.34;6212815;23;20003;-83
2022/12/28 12:43:36;;;;;;;0.00;0.00;;;;;;;9.39;100.00;98556.22;6210534;23;20064;-83
2022/12/28 12:46:30;;;;;;;0.00;0.00;;;;;;;9.49;100.00;98566.09;6209934;23;20008;-82
2022/12/28 12:49:13;;;;;;;0.00;0.00;;;;;;;9.58;100.00;98575.22;6214648;23;20007;-83
2022/12/28 12:52:03;;;;;;;;;;;;;;;;;;;;;
2022/12/28 12:55:08;;;;;;;0.00;0.00;;;;;;;9.51;100.00;98540.13;6213287;23;20083;-84
2022/12/28 12:57:51;;;;;;;0.00;0.00;;;;;;;9.68;100.00;98527.78;6209599;23;20015;-84
2022/12/28 13:00:26;;;;;;;0.00;0.00;;;;;;;9.52;100.00;98514.47;6211610;23;20004;-85
2022/12/28 13:03:32;;;;;;;0.00;0.00;;;;;;;9.81;100.00;98526.94;6214553;23;20035;-83
2022/12/28 13:05:58;;;;;;;0.00;0.00;;;;;;;9.78;100.00;98497.53;6217822;23;20020;-85
2022/12/28 13:08:46;;;;;;;0.00;0.00;;;;;;;9.81;100.00;98485.19;6217621;23;20000;-85
2022/12/28 13:11:18;;;;;;;0.00;0.00;;;;;;;9.89;100.00;98496.19;6213222;23;20107;-82
2022/12/28 13:13:49;;;;;;;0.10;0.10;;;;;;;10.06;100.00;98481.03;6216825;23;20009;-82
2022/12/28 13:17:02;;;;;;;0.00;0.00;;;;;;;10.23;100.00;98470.25;6213037;23;20001;-83
2022/12/28 13:19:37;;;;;;;0.00;0.00;;;;;;;10.05;100.00;98484.91;6199172;23;20053;-81
2022/12/28 13:22:33;;;;;;;;;;;;;;;;;;;;;
2022/12/28 13:25:09;;;;;;;;;;;;;;;;;;;;;
2022/12/28 13:27:37;;;;;;;0.00;0.00;;;;;;;10.27;100.00;98506.75;6215359;23;20020;-84
2022/12/28 13:30:03;;;;;;;0.00;0.00;;;;;;;10.42;100.00;98488.41;6216939;23;20000;-84
2022/12/28 13:32:35;;;;;;;0.00;0.00;;;;;;;10.46;100.00;98475.72;6192036;23;20004;-84
2022/12/28 13:35:17;;;;;;;0.00;0.00;;;;;;;10.48;100.00;98503.53;6186124;23;20001;-82
2022/12/28 13:38:03;;;;;;;0.00;0.00;;;;;;;10.52;100.00;98514.66;6193911;23;20008;-83
2022/12/28 13:40:31;;;;;;;0.10;0.10;;;;;;;10.46;100.00;98489.38;6216781;23;20091;-87
2022/12/28 13:43:36;;;;;;;0.00;0.00;;;;;;;10.59;100.00;98504.09;6222346;23;20083;-84
2022/12/28 13:46:09;;;;;;;0.00;0.00;;;;;;;10.58;100.00;98500.53;6220734;23;20015;-85
2022/12/28 13:48:48;;;;;;;;;;;;;;;;;;;;;
2022/12/28 13:51:27;;;;;;;;;;;;;;;;;;;;;
2022/12/28 13:54:04;;;;;;;0.00;0.00;;;;;;;10.73;100.00;98482.13;6215045;23;20079;-82
2022/12/28 13:56:31;;;;;;;0.00;0.00;;;;;;;10.80;100.00;98487.94;6213328;23;20285;-81
2022/12/28 13:59:35;;;;;;;0.00;0.00;;;;;;;10.83;100.00;98487.31;6207877;23;20008;-81
2022/12/28 14:02:19;;;;;;;0.00;0.00;;;;;;;10.83;100.00;98484.59;6210720;23;20011;-82
2022/12/28 14:04:58;;;;;;;;;;;;;;;;;;;;;
2022/12/28 14:07:28;;;;;;;0.00;0.00;;;;;;;10.77;100.00;98472.19;6208527;23;20088;-83
2022/12/28 14:09:55;;;;;;;0.00;0.00;;;;;;;10.84;100.00;98486.19;6210174;23;20015;-84
2022/12/28 14:15:18;;;;;;;0.00;0.00;;;;;;;10.85;100.00;98471.41;6205446;23;20331;-81
2022/12/28 14:18:02;;;;;;;;;;;;;;;;;;;;;
2022/12/28 14:20:43;;;;;;;0.00;0.00;;;;;;;11.12;100.00;98483.25;6214082;23;20148;-80
2022/12/28 14:23:39;;;;;;;0.00;0.00;;;;;;;11.37;100.00;98462.53;6214476;23;20040;-84
2022/12/28 14:26:10;;;;;;;0.00;0.00;;;;;;;11.44;100.00;98451.13;6183555;23;20032;-84
2022/12/28 14:28:57;;;;;;;0.00;0.00;;;;;;;11.53;100.00;98439.09;6215319;23;20035;-83
2022/12/28 14:31:28;;;;;;;0.05;0.05;;;;;;;12.04;100.00;98477.75;6214476;23;20008;-83
2022/12/28 14:33:56;;;;;;;0.00;0.00;;;;;;;13.36;100.00;98434.25;6210375;23;19997;-83
2022/12/28 14:36:26;;;;;;;0.00;0.00;;;;;;;14.20;100.00;98447.16;6209756;23;20063;-84
2022/12/28 14:38:54;;;;;;;0.00;0.00;;;;;;;13.85;100.00;98455.69;6212595;23;20027;-82
2022/12/28 14:41:41;;;;;;;0.00;0.00;;;;;;;12.98;100.00;98443.34;6210882;23;20083;-84
2022/12/28 14:44:17;;;;;;;0.00;0.00;;;;;;;12.50;100.00;98459.00;6210808;23;20015;-81
2022/12/28 14:46:56;;;;;;;;;;;;;;;;;;;;;
2022/12/28 14:49:33;;;;;;;0.00;0.00;;;;;;;12.66;100.00;98452.97;6212848;23;20032;-81
2022/12/28 14:52:08;;;;;;;0.00;0.00;;;;;;;12.56;100.00;98454.16;6188052;23;20005;-82